ACA421 CYYZ-CYUL
Flight info
| Callsign | ACA421 |
|---|---|
| Flight time | 0h 50m |
| Altitude | 35000 |
| Route | DEDKI5 MIGLO HABBS7 |
| Aircraft | A320/M-SDE3FGHIRWY/LB1 |
Departure
| Time | 2026-05-05 23:17 |
|---|---|
| Airport | Toronto Pearson International Airport (CYYZ) |
Arrival
| Time | 2026-05-06 00:08 |
|---|---|
| Airport | Montreal / Pierre Elliott Trudeau International Airport (CYUL) |
| Time | Latitude | Longitude | Altitude | Speed | Heading |
|---|---|---|---|---|---|
| 2026-05-05 22:56 | 43.67974 | -79.61497 | 568 ft | 0 kts | 316° |
| 2026-05-05 23:01 | 43.67973 | -79.61496 | 562 ft | 2 kts | 316° |
| 2026-05-05 23:02 | 43.67961 | -79.61480 | 568 ft | 2 kts | 316° |
| 2026-05-05 23:02 | 43.67949 | -79.61464 | 562 ft | 2 kts | 316° |
| 2026-05-05 23:02 | 43.67937 | -79.61448 | 569 ft | 2 kts | 316° |
| 2026-05-05 23:02 | 43.67926 | -79.61430 | 565 ft | 2 kts | 287° |
| 2026-05-05 23:03 | 43.67925 | -79.61408 | 571 ft | 2 kts | 266° |
| 2026-05-05 23:03 | 43.67927 | -79.61393 | 566 ft | 0 kts | 225° |
| 2026-05-05 23:06 | 43.67925 | -79.61396 | 566 ft | 3 kts | 225° |
| 2026-05-05 23:06 | 43.67870 | -79.61472 | 562 ft | 17 kts | 225° |
| 2026-05-05 23:06 | 43.67805 | -79.61564 | 564 ft | 1 kts | 226° |
| 2026-05-05 23:07 | 43.67792 | -79.61583 | 565 ft | 5 kts | 226° |
| 2026-05-05 23:07 | 43.67770 | -79.61615 | 566 ft | 4 kts | 226° |
| 2026-05-05 23:08 | 43.67741 | -79.61656 | 562 ft | 9 kts | 223° |
| 2026-05-05 23:08 | 43.67692 | -79.61647 | 567 ft | 0 kts | 153° |
| 2026-05-05 23:08 | 43.67691 | -79.61647 | 567 ft | 0 kts | 153° |
| 2026-05-05 23:08 | 43.67668 | -79.61639 | 564 ft | 7 kts | 176° |
| 2026-05-05 23:09 | 43.67630 | -79.61694 | 568 ft | 10 kts | 251° |
| 2026-05-05 23:09 | 43.67677 | -79.61786 | 568 ft | 15 kts | 317° |
| 2026-05-05 23:09 | 43.67762 | -79.61896 | 563 ft | 18 kts | 316° |
| 2026-05-05 23:09 | 43.67855 | -79.62018 | 562 ft | 19 kts | 316° |
| 2026-05-05 23:10 | 43.67968 | -79.62098 | 565 ft | 18 kts | 308° |
| 2026-05-05 23:10 | 43.68057 | -79.62217 | 562 ft | 19 kts | 315° |
| 2026-05-05 23:10 | 43.68158 | -79.62344 | 570 ft | 20 kts | 319° |
| 2026-05-05 23:10 | 43.68265 | -79.62475 | 565 ft | 21 kts | 320° |
| 2026-05-05 23:11 | 43.68369 | -79.62609 | 563 ft | 16 kts | 316° |
| 2026-05-05 23:11 | 43.68458 | -79.62722 | 572 ft | 19 kts | 317° |
| 2026-05-05 23:11 | 43.68550 | -79.62842 | 566 ft | 13 kts | 316° |
| 2026-05-05 23:11 | 43.68620 | -79.62934 | 561 ft | 15 kts | 316° |
| 2026-05-05 23:12 | 43.68703 | -79.63042 | 561 ft | 17 kts | 316° |
| 2026-05-05 23:12 | 43.68795 | -79.63163 | 562 ft | 19 kts | 316° |
| 2026-05-05 23:12 | 43.68895 | -79.63295 | 563 ft | 20 kts | 316° |
| 2026-05-05 23:12 | 43.68991 | -79.63419 | 564 ft | 17 kts | 317° |
| 2026-05-05 23:13 | 43.69082 | -79.63529 | 571 ft | 13 kts | 338° |
| 2026-05-05 23:13 | 43.69156 | -79.63477 | 569 ft | 12 kts | 45° |
| 2026-05-05 23:13 | 43.69226 | -79.63423 | 567 ft | 12 kts | 4° |
| 2026-05-05 23:13 | 43.69318 | -79.63421 | 568 ft | 15 kts | 1° |
| 2026-05-05 23:14 | 43.69337 | -79.63421 | 564 ft | 0 kts | 358° |
| 2026-05-05 23:16 | 43.69367 | -79.63436 | 564 ft | 12 kts | 331° |
| 2026-05-05 23:16 | 43.69377 | -79.63568 | 570 ft | 18 kts | 224° |
| 2026-05-05 23:16 | 43.69324 | -79.63640 | 565 ft | 2 kts | 226° |
| 2026-05-05 23:16 | 43.69182 | -79.63848 | 566 ft | 69 kts | 227° |
| 2026-05-05 23:17 | 43.68697 | -79.64551 | 562 ft | 134 kts | 226° |
| 2026-05-05 23:17 | 43.67992 | -79.65602 | 963 ft | 149 kts | 230° |
| 2026-05-05 23:17 | 43.67269 | -79.66756 | 1456 ft | 170 kts | 231° |
| 2026-05-05 23:17 | 43.66465 | -79.68095 | 1878 ft | 194 kts | 232° |
| 2026-05-05 23:18 | 43.65540 | -79.69592 | 2440 ft | 213 kts | 230° |
| 2026-05-05 23:18 | 43.64501 | -79.71210 | 2916 ft | 239 kts | 229° |
| 2026-05-05 23:18 | 43.63313 | -79.72984 | 3502 ft | 262 kts | 228° |
| 2026-05-05 23:18 | 43.62022 | -79.74851 | 4294 ft | 275 kts | 231° |
| 2026-05-05 23:19 | 43.60742 | -79.76857 | 5246 ft | 280 kts | 231° |
| 2026-05-05 23:19 | 43.59189 | -79.78382 | 6698 ft | 274 kts | 208° |
| 2026-05-05 23:19 | 43.57333 | -79.78878 | 8150 ft | 275 kts | 188° |
| 2026-05-05 23:19 | 43.55436 | -79.78307 | 9379 ft | 289 kts | 166° |
| 2026-05-05 23:20 | 43.53769 | -79.76590 | 10365 ft | 315 kts | 139° |
| 2026-05-05 23:20 | 43.52739 | -79.73807 | 11147 ft | 343 kts | 114° |
| 2026-05-05 23:20 | 43.52085 | -79.70510 | 11535 ft | 368 kts | 110° |
| 2026-05-05 23:20 | 43.51496 | -79.67021 | 12253 ft | 378 kts | 108° |
| 2026-05-05 23:21 | 43.50940 | -79.63447 | 13063 ft | 385 kts | 107° |
| 2026-05-05 23:21 | 43.50635 | -79.59734 | 13850 ft | 396 kts | 94° |
| 2026-05-05 23:21 | 43.50868 | -79.55913 | 14579 ft | 405 kts | 82° |
| 2026-05-05 23:21 | 43.51538 | -79.52167 | 15270 ft | 411 kts | 77° |
| 2026-05-05 23:22 | 43.52269 | -79.48345 | 15970 ft | 415 kts | 78° |
| 2026-05-05 23:22 | 43.53007 | -79.44450 | 16666 ft | 420 kts | 78° |
| 2026-05-05 23:22 | 43.53758 | -79.40562 | 17350 ft | 425 kts | 77° |
| 2026-05-05 23:22 | 43.54589 | -79.36628 | 18053 ft | 430 kts | 76° |
| 2026-05-05 23:23 | 43.55481 | -79.32680 | 18645 ft | 434 kts | 75° |
| 2026-05-05 23:23 | 43.56410 | -79.28701 | 19223 ft | 439 kts | 75° |
| 2026-05-05 23:23 | 43.57353 | -79.24673 | 19806 ft | 443 kts | 75° |
| 2026-05-05 23:23 | 43.58293 | -79.20611 | 20379 ft | 447 kts | 75° |
| 2026-05-05 23:24 | 43.59225 | -79.16490 | 20944 ft | 451 kts | 75° |
| 2026-05-05 23:24 | 43.60152 | -79.12329 | 21510 ft | 455 kts | 76° |
| 2026-05-05 23:24 | 43.61081 | -79.08126 | 22080 ft | 460 kts | 76° |
| 2026-05-05 23:24 | 43.62002 | -79.03936 | 22618 ft | 464 kts | 75° |
| 2026-05-05 23:25 | 43.62939 | -78.99654 | 23175 ft | 468 kts | 75° |
| 2026-05-05 23:25 | 43.63886 | -78.95332 | 23696 ft | 472 kts | 75° |
| 2026-05-05 23:25 | 43.64839 | -78.90982 | 24145 ft | 476 kts | 75° |
| 2026-05-05 23:25 | 43.65801 | -78.86589 | 24612 ft | 479 kts | 75° |
| 2026-05-05 23:26 | 43.66772 | -78.82158 | 25062 ft | 483 kts | 75° |
| 2026-05-05 23:26 | 43.67744 | -78.77709 | 25506 ft | 486 kts | 75° |
| 2026-05-05 23:26 | 43.68724 | -78.73223 | 26026 ft | 488 kts | 73° |
| 2026-05-05 23:26 | 43.69941 | -78.68812 | 26371 ft | 494 kts | 66° |
| 2026-05-05 23:27 | 43.71301 | -78.64423 | 26775 ft | 497 kts | 66° |
| 2026-05-05 23:27 | 43.72666 | -78.60024 | 27195 ft | 500 kts | 66° |
| 2026-05-05 23:27 | 43.74034 | -78.55601 | 27602 ft | 503 kts | 66° |
| 2026-05-05 23:27 | 43.75411 | -78.51133 | 28004 ft | 506 kts | 66° |
| 2026-05-05 23:28 | 43.76774 | -78.46693 | 28395 ft | 509 kts | 66° |
| 2026-05-05 23:28 | 43.78157 | -78.42175 | 28778 ft | 512 kts | 66° |
| 2026-05-05 23:28 | 43.79544 | -78.37623 | 29148 ft | 515 kts | 66° |
| 2026-05-05 23:28 | 43.80938 | -78.33040 | 29512 ft | 518 kts | 66° |
| 2026-05-05 23:29 | 43.82343 | -78.28417 | 29930 ft | 521 kts | 66° |
| 2026-05-05 23:29 | 43.83750 | -78.23783 | 30210 ft | 524 kts | 66° |
| 2026-05-05 23:29 | 43.85165 | -78.19115 | 30506 ft | 527 kts | 66° |
| 2026-05-05 23:29 | 43.86587 | -78.14416 | 30793 ft | 530 kts | 66° |
| 2026-05-05 23:30 | 43.88014 | -78.09688 | 31075 ft | 532 kts | 65° |
| 2026-05-05 23:30 | 43.88957 | -78.06557 | 31256 ft | 534 kts | 65° |
| 2026-05-05 23:30 | 43.90874 | -78.00187 | 31660 ft | 536 kts | 65° |
| 2026-05-05 23:30 | 43.92308 | -77.95408 | 32021 ft | 535 kts | 65° |
| 2026-05-05 23:31 | 43.93738 | -77.90638 | 32387 ft | 535 kts | 65° |
| 2026-05-05 23:31 | 43.95170 | -77.85860 | 32764 ft | 535 kts | 65° |
| 2026-05-05 23:31 | 43.96598 | -77.81087 | 33173 ft | 535 kts | 65° |
| 2026-05-05 23:31 | 43.98020 | -77.76315 | 33556 ft | 535 kts | 65° |
| 2026-05-05 23:32 | 43.99442 | -77.71528 | 33928 ft | 535 kts | 65° |
| 2026-05-05 23:32 | 44.00855 | -77.66758 | 34265 ft | 535 kts | 65° |
| 2026-05-05 23:32 | 44.02267 | -77.61982 | 34622 ft | 533 kts | 65° |
| 2026-05-05 23:32 | 44.03676 | -77.57214 | 34805 ft | 533 kts | 65° |
| 2026-05-05 23:33 | 44.06439 | -77.47855 | 34860 ft | 520 kts | 65° |
| 2026-05-05 23:33 | 44.09735 | -77.39034 | 34859 ft | 510 kts | 52° |
| 2026-05-05 23:34 | 44.13602 | -77.30750 | 34858 ft | 510 kts | 52° |
| 2026-05-05 23:34 | 44.17457 | -77.22458 | 34836 ft | 510 kts | 52° |
| 2026-05-05 23:35 | 44.21304 | -77.14147 | 34857 ft | 511 kts | 52° |
| 2026-05-05 23:35 | 44.25148 | -77.05815 | 34857 ft | 510 kts | 52° |
| 2026-05-05 23:36 | 44.28977 | -76.97467 | 34880 ft | 511 kts | 52° |
| 2026-05-05 23:36 | 44.32778 | -76.89165 | 34861 ft | 511 kts | 52° |
| 2026-05-05 23:37 | 44.36604 | -76.80804 | 34854 ft | 510 kts | 52° |
| 2026-05-05 23:37 | 44.40420 | -76.72437 | 34832 ft | 510 kts | 52° |
| 2026-05-05 23:38 | 44.44227 | -76.64037 | 34860 ft | 510 kts | 52° |
| 2026-05-05 23:38 | 44.48024 | -76.55637 | 34847 ft | 510 kts | 52° |
| 2026-05-05 23:39 | 44.51824 | -76.47250 | 34837 ft | 510 kts | 52° |
| 2026-05-05 23:39 | 44.55615 | -76.38846 | 34833 ft | 510 kts | 52° |
| 2026-05-05 23:40 | 44.58756 | -76.31858 | 34853 ft | 510 kts | 52° |
| 2026-05-05 23:40 | 44.62535 | -76.23424 | 34820 ft | 510 kts | 53° |
| 2026-05-05 23:41 | 44.64651 | -76.17499 | 34815 ft | 515 kts | 64° |
| 2026-05-05 23:41 | 44.66014 | -76.12849 | 34814 ft | 515 kts | 64° |
| 2026-05-05 23:41 | 44.68306 | -76.05047 | 34802 ft | 515 kts | 64° |
| 2026-05-05 23:42 | 44.71046 | -75.95708 | 34843 ft | 518 kts | 65° |
| 2026-05-05 23:42 | 44.73623 | -75.86276 | 34795 ft | 527 kts | 67° |
| 2026-05-05 23:43 | 44.76144 | -75.76543 | 34036 ft | 534 kts | 67° |
| 2026-05-05 23:43 | 44.77420 | -75.71614 | 33198 ft | 536 kts | 67° |
| 2026-05-05 23:43 | 44.78703 | -75.66709 | 32528 ft | 534 kts | 68° |
| 2026-05-05 23:44 | 44.79994 | -75.61827 | 31943 ft | 530 kts | 68° |
| 2026-05-05 23:44 | 44.81282 | -75.56983 | 31380 ft | 526 kts | 68° |
| 2026-05-05 23:44 | 44.82558 | -75.52178 | 30840 ft | 522 kts | 68° |
| 2026-05-05 23:44 | 44.83819 | -75.47407 | 30315 ft | 518 kts | 69° |
| 2026-05-05 23:45 | 44.85083 | -75.42680 | 29812 ft | 514 kts | 69° |
| 2026-05-05 23:45 | 44.86384 | -75.38000 | 29200 ft | 510 kts | 67° |
| 2026-05-05 23:45 | 44.87701 | -75.33398 | 28725 ft | 503 kts | 67° |
| 2026-05-05 23:45 | 44.89017 | -75.28856 | 28235 ft | 498 kts | 67° |
| 2026-05-05 23:46 | 44.90318 | -75.24351 | 27723 ft | 493 kts | 67° |
| 2026-05-05 23:46 | 44.91586 | -75.19915 | 26916 ft | 484 kts | 68° |
| 2026-05-05 23:46 | 44.92822 | -75.15529 | 26044 ft | 477 kts | 69° |
| 2026-05-05 23:46 | 44.94028 | -75.11219 | 25222 ft | 469 kts | 69° |
| 2026-05-05 23:47 | 44.95214 | -75.06969 | 24422 ft | 462 kts | 70° |
| 2026-05-05 23:47 | 44.96380 | -75.02773 | 23718 ft | 453 kts | 70° |
| 2026-05-05 23:47 | 44.97512 | -74.98697 | 23242 ft | 439 kts | 70° |
| 2026-05-05 23:47 | 44.98683 | -74.94770 | 22703 ft | 426 kts | 63° |
| 2026-05-05 23:48 | 45.00082 | -74.91226 | 22217 ft | 412 kts | 60° |
| 2026-05-05 23:48 | 45.01473 | -74.87752 | 21761 ft | 399 kts | 60° |
| 2026-05-05 23:48 | 45.02817 | -74.84377 | 21338 ft | 392 kts | 60° |
| 2026-05-05 23:48 | 45.04149 | -74.81019 | 20894 ft | 392 kts | 60° |
| 2026-05-05 23:49 | 45.05483 | -74.77654 | 20458 ft | 392 kts | 60° |
| 2026-05-05 23:49 | 45.06818 | -74.74286 | 20013 ft | 393 kts | 60° |
| 2026-05-05 23:49 | 45.08155 | -74.70918 | 19582 ft | 393 kts | 60° |
| 2026-05-05 23:49 | 45.09494 | -74.67534 | 19133 ft | 394 kts | 60° |
| 2026-05-05 23:50 | 45.10833 | -74.64143 | 18711 ft | 395 kts | 60° |
| 2026-05-05 23:50 | 45.12179 | -74.60759 | 18263 ft | 396 kts | 58° |
| 2026-05-05 23:50 | 45.13588 | -74.57397 | 17784 ft | 397 kts | 57° |
| 2026-05-05 23:50 | 45.15036 | -74.54094 | 17540 ft | 391 kts | 56° |
| 2026-05-05 23:51 | 45.16483 | -74.50853 | 17170 ft | 388 kts | 56° |
| 2026-05-05 23:51 | 45.17924 | -74.47628 | 16747 ft | 388 kts | 56° |
| 2026-05-05 23:51 | 45.19342 | -74.44430 | 16322 ft | 388 kts | 56° |
| 2026-05-05 23:51 | 45.20786 | -74.41149 | 15883 ft | 388 kts | 56° |
| 2026-05-05 23:52 | 45.22211 | -74.37881 | 15366 ft | 390 kts | 57° |
| 2026-05-05 23:52 | 45.23614 | -74.34634 | 14866 ft | 392 kts | 57° |
| 2026-05-05 23:52 | 45.25041 | -74.31322 | 14358 ft | 395 kts | 57° |
| 2026-05-05 23:52 | 45.26475 | -74.27986 | 13842 ft | 397 kts | 57° |
| 2026-05-05 23:53 | 45.27915 | -74.24636 | 13369 ft | 397 kts | 57° |
| 2026-05-05 23:53 | 45.29359 | -74.21280 | 12906 ft | 396 kts | 57° |
| 2026-05-05 23:53 | 45.30785 | -74.17964 | 12515 ft | 392 kts | 57° |
| 2026-05-05 23:53 | 45.32194 | -74.14685 | 11796 ft | 386 kts | 58° |
| 2026-05-05 23:54 | 45.33573 | -74.11471 | 11258 ft | 375 kts | 58° |
| 2026-05-05 23:54 | 45.34911 | -74.08348 | 10779 ft | 364 kts | 58° |
| 2026-05-05 23:54 | 45.36348 | -74.05413 | 10323 ft | 362 kts | 46° |
| 2026-05-05 23:54 | 45.38146 | -74.02933 | 9871 ft | 360 kts | 38° |
| 2026-05-05 23:55 | 45.39969 | -74.00572 | 9423 ft | 350 kts | 38° |
| 2026-05-05 23:55 | 45.41751 | -73.98255 | 8763 ft | 344 kts | 38° |
| 2026-05-05 23:55 | 45.43490 | -73.95990 | 8481 ft | 338 kts | 38° |
| 2026-05-05 23:55 | 45.45229 | -73.93727 | 8046 ft | 339 kts | 38° |
| 2026-05-05 23:56 | 45.46963 | -73.91470 | 7655 ft | 336 kts | 37° |
| 2026-05-05 23:56 | 45.48678 | -73.89235 | 7294 ft | 332 kts | 38° |
| 2026-05-05 23:56 | 45.50375 | -73.87013 | 6744 ft | 328 kts | 38° |
| 2026-05-05 23:56 | 45.52038 | -73.84834 | 6141 ft | 321 kts | 37° |
| 2026-05-05 23:57 | 45.53646 | -73.82727 | 5820 ft | 303 kts | 37° |
| 2026-05-05 23:57 | 45.55140 | -73.80758 | 5695 ft | 284 kts | 37° |
| 2026-05-05 23:57 | 45.56565 | -73.78881 | 5560 ft | 273 kts | 37° |
| 2026-05-05 23:57 | 45.57949 | -73.77068 | 5332 ft | 268 kts | 37° |
| 2026-05-05 23:58 | 45.59333 | -73.75264 | 4989 ft | 267 kts | 38° |
| 2026-05-05 23:58 | 45.60707 | -73.73471 | 4521 ft | 272 kts | 38° |
| 2026-05-05 23:58 | 45.62077 | -73.71677 | 4251 ft | 262 kts | 39° |
| 2026-05-05 23:58 | 45.63385 | -73.69953 | 4122 ft | 249 kts | 38° |
| 2026-05-05 23:59 | 45.64632 | -73.68309 | 4008 ft | 238 kts | 38° |
| 2026-05-05 23:59 | 45.65818 | -73.66747 | 3927 ft | 226 kts | 38° |
| 2026-05-05 23:59 | 45.66964 | -73.65243 | 3927 ft | 223 kts | 38° |
| 2026-05-05 23:59 | 45.68108 | -73.63743 | 3855 ft | 223 kts | 38° |
| 2026-05-06 00:00 | 45.69231 | -73.62220 | 3787 ft | 224 kts | 46° |
| 2026-05-06 00:00 | 45.69874 | -73.60241 | 3719 ft | 224 kts | 85° |
| 2026-05-06 00:00 | 45.69650 | -73.58095 | 3675 ft | 213 kts | 121° |
| 2026-05-06 00:00 | 45.68966 | -73.56276 | 3624 ft | 207 kts | 134° |
| 2026-05-06 00:01 | 45.67983 | -73.54890 | 3567 ft | 191 kts | 153° |
| 2026-05-06 00:01 | 45.66930 | -73.53804 | 3525 ft | 182 kts | 160° |
| 2026-05-06 00:01 | 45.65802 | -73.53173 | 3472 ft | 168 kts | 181° |
| 2026-05-06 00:01 | 45.64677 | -73.53143 | 3416 ft | 158 kts | 199° |
| 2026-05-06 00:02 | 45.63663 | -73.53621 | 3375 ft | 150 kts | 215° |
| 2026-05-06 00:02 | 45.62842 | -73.54491 | 3326 ft | 146 kts | 227° |
| 2026-05-06 00:02 | 45.62095 | -73.55478 | 3273 ft | 147 kts | 227° |
| 2026-05-06 00:02 | 45.61339 | -73.56476 | 3222 ft | 149 kts | 227° |
| 2026-05-06 00:03 | 45.60579 | -73.57479 | 3184 ft | 149 kts | 227° |
| 2026-05-06 00:03 | 45.59818 | -73.58482 | 3093 ft | 148 kts | 227° |
| 2026-05-06 00:03 | 45.59068 | -73.59471 | 2931 ft | 147 kts | 227° |
| 2026-05-06 00:03 | 45.58318 | -73.60459 | 2756 ft | 146 kts | 227° |
| 2026-05-06 00:04 | 45.57567 | -73.61449 | 2584 ft | 147 kts | 227° |
| 2026-05-06 00:04 | 45.56817 | -73.62435 | 2392 ft | 143 kts | 229° |
| 2026-05-06 00:04 | 45.56106 | -73.63369 | 2203 ft | 134 kts | 226° |
| 2026-05-06 00:04 | 45.55441 | -73.64244 | 2026 ft | 127 kts | 228° |
| 2026-05-06 00:05 | 45.54167 | -73.65921 | 1704 ft | 125 kts | 229° |
| 2026-05-06 00:05 | 45.53542 | -73.66742 | 1530 ft | 123 kts | 229° |
| 2026-05-06 00:05 | 45.52912 | -73.67568 | 1361 ft | 122 kts | 227° |
| 2026-05-06 00:06 | 45.52290 | -73.68387 | 1217 ft | 122 kts | 230° |
| 2026-05-06 00:06 | 45.51674 | -73.69212 | 1051 ft | 121 kts | 229° |
| 2026-05-06 00:06 | 45.51050 | -73.70025 | 904 ft | 120 kts | 228° |
| 2026-05-06 00:06 | 45.50432 | -73.70851 | 788 ft | 125 kts | 229° |
| 2026-05-06 00:07 | 45.49789 | -73.71679 | 568 ft | 125 kts | 225° |
| 2026-05-06 00:07 | 45.49164 | -73.72517 | 402 ft | 123 kts | 227° |
| 2026-05-06 00:07 | 45.48530 | -73.73330 | 223 ft | 122 kts | 229° |
| 2026-05-06 00:07 | 45.47927 | -73.74130 | 123 ft | 108 kts | 225° |
| 2026-05-06 00:08 | 45.47505 | -73.74678 | 117 ft | 45 kts | 218° |
| 2026-05-06 00:08 | 45.47391 | -73.74821 | 117 ft | 25 kts | 223° |
| 2026-05-06 00:08 | 45.47225 | -73.75052 | 119 ft | 37 kts | 225° |
| 2026-05-06 00:08 | 45.47005 | -73.75331 | 114 ft | 43 kts | 220° |
| 2026-05-06 00:09 | 45.46799 | -73.75556 | 115 ft | 30 kts | 200° |
| 2026-05-06 00:09 | 45.46610 | -73.75629 | 116 ft | 28 kts | 193° |
| 2026-05-06 00:09 | 45.46470 | -73.75673 | 116 ft | 7 kts | 190° |
| 2026-05-06 00:09 | 45.46404 | -73.75693 | 114 ft | 12 kts | 193° |
| 2026-05-06 00:10 | 45.46303 | -73.75728 | 114 ft | 18 kts | 191° |
| 2026-05-06 00:10 | 45.46172 | -73.75721 | 113 ft | 21 kts | 178° |
| 2026-05-06 00:10 | 45.46126 | -73.75662 | 111 ft | 6 kts | 83° |
| 2026-05-06 00:10 | 45.46126 | -73.75553 | 109 ft | 16 kts | 120° |
| 2026-05-06 00:11 | 45.46052 | -73.75547 | 111 ft | 9 kts | 172° |
| 2026-05-06 00:11 | 45.46006 | -73.75541 | 110 ft | 6 kts | 177° |
| 2026-05-06 00:11 | 45.45971 | -73.75539 | 110 ft | 0 kts | 179° |